EGPB - Sumburgh Cape
Distance from station: E 5mi, 14km
Updated: 04/23/2018 9:50pm
Light rain, Mostly cloudy
Light rain, Mostly cloudy
 Wind from W
Wind: W 15 mph , 24 km/h
Temperature: 43°F , 6°C
Wind Chill: 36°F , 2°C
Dew Point: 41°F , 5°C
Humidity: 93%
Barometer: 29.41 inHg , 996 hPa
Summary: Light Rain
Clouds: Mostly Cloudy
Visibility: 6 miles , 10 km
Cloud details: Few Clouds 900 ft
Mostly Cloudy 3000 ft
Mostly Cloudy 4900 ft
2018/04/24 04:50 EGPB 240450Z AUTO 26013KT 9999 -RA FEW009/// BKN030/// BKN049/// 06/05 Q0996